Time;durP1;ratioP1;P1;durP2;ratioP2;P2;SDS_P1;SDS_P2;PMS_P1;PMS_P2;Temp;Humidity;BMP_temperature;BMP_pressure;BME280_temperature;BME280_humidity;BME280_pressure;Samples;Min_cycle;Max_cycle;Signal;HPM_P1;HPM_P2
2023/10/28 00:00:26;;;;;;;0.65;0.65;;;;;;;;;;4936218;29;20206;-84
2023/10/28 00:02:53;;;;;;;0.70;0.70;;;;;;;;;;4935917;29;20768;-86
2023/10/28 00:05:24;;;;;;;0.57;0.47;;;;;;;;;;4935500;29;20580;-84
2023/10/28 00:07:53;;;;;;;0.50;0.50;;;;;;;;;;4935089;29;20207;-84
2023/10/28 00:10:22;;;;;;;0.90;0.90;;;;;;;;;;4936531;29;20215;-84
2023/10/28 00:12:52;;;;;;;0.73;0.63;;;;;;;;;;4936177;29;20214;-84
2023/10/28 00:15:21;;;;;;;0.68;0.55;;;;;;;;;;4936092;29;20697;-84
2023/10/28 00:17:49;;;;;;;0.50;0.50;;;;;;;;;;4935252;29;20202;-85
2023/10/28 00:20:19;;;;;;;1.45;0.40;;;;;;;;;;4934278;29;20215;-84
2023/10/28 00:22:49;;;;;;;1.55;0.60;;;;;;;;;;4935654;29;20207;-84
2023/10/28 00:25:22;;;;;;;0.88;0.57;;;;;;;;;;4936267;29;20291;-86
2023/10/28 00:27:55;;;;;;;0.50;0.40;;;;;;;;;;4935496;29;20211;-84
2023/10/28 00:30:26;;;;;;;0.50;0.50;;;;;;;;;;4935551;29;20207;-84
2023/10/28 00:32:57;;;;;;;0.35;0.35;;;;;;;;;;4934729;29;20231;-84
2023/10/28 00:35:28;;;;;;;0.82;0.40;;;;;;;;;;4935837;29;20204;-84
2023/10/28 00:37:55;;;;;;;0.60;0.60;;;;;;;;;;4945393;29;20255;-84
2023/10/28 00:40:28;;;;;;;0.88;0.47;;;;;;;;;;4946407;29;20211;-85
2023/10/28 00:42:58;;;;;;;0.75;0.57;;;;;;;;;;4946119;29;20195;-83
2023/10/28 00:45:27;;;;;;;1.75;0.57;;;;;;;;;;4944431;29;20282;-84
2023/10/28 00:47:57;;;;;;;0.60;0.32;;;;;;;;;;4944962;29;20203;-84
2023/10/28 00:50:25;;;;;;;2.53;0.30;;;;;;;;;;4946328;29;20197;-84
2023/10/28 00:52:55;;;;;;;0.40;0.40;;;;;;;;;;4947268;29;20214;-84
2023/10/28 00:55:26;;;;;;;0.32;0.32;;;;;;;;;;4950704;29;20212;-83
2023/10/28 00:57:55;;;;;;;0.30;0.30;;;;;;;;;;4958484;28;20183;-84
2023/10/28 01:00:24;;;;;;;0.30;0.30;;;;;;;;;;4958548;28;20203;-82
2023/10/28 01:02:55;;;;;;;0.52;0.50;;;;;;;;;;4957977;28;20229;-84
2023/10/28 01:05:23;;;;;;;1.35;1.00;;;;;;;;;;4958308;28;20218;-84
2023/10/28 01:07:52;;;;;;;2.40;0.60;;;;;;;;;;4955473;28;20235;-83
2023/10/28 01:10:27;;;;;;;1.13;0.60;;;;;;;;;;4956676;28;20196;-83
2023/10/28 01:12:59;;;;;;;0.40;0.40;;;;;;;;;;4939697;29;20293;-82
2023/10/28 01:15:29;;;;;;;1.67;0.40;;;;;;;;;;4942119;29;20238;-84
2023/10/28 01:17:58;;;;;;;1.13;0.45;;;;;;;;;;4943020;29;20222;-84
2023/10/28 01:20:27;;;;;;;1.20;0.50;;;;;;;;;;4935158;29;20289;-83
2023/10/28 01:23:02;;;;;;;0.52;0.52;;;;;;;;;;4936101;29;20681;-84
2023/10/28 01:25:31;;;;;;;1.23;0.40;;;;;;;;;;4935930;29;20222;-84
2023/10/28 01:28:01;;;;;;;0.50;0.40;;;;;;;;;;4935015;29;20532;-84
2023/10/28 01:30:32;;;;;;;0.40;0.40;;;;;;;;;;4935257;29;20254;-84
2023/10/28 01:33:03;;;;;;;2.40;0.52;;;;;;;;;;4935359;29;20575;-84
2023/10/28 01:35:33;;;;;;;1.70;0.40;;;;;;;;;;4934786;29;20194;-84
2023/10/28 01:38:04;;;;;;;0.60;0.60;;;;;;;;;;4940440;29;20217;-85
2023/10/28 01:40:34;;;;;;;0.73;0.50;;;;;;;;;;4948872;29;20288;-84
2023/10/28 01:43:03;;;;;;;0.35;0.35;;;;;;;;;;4950276;28;20199;-85
2023/10/28 01:45:34;;;;;;;0.40;0.40;;;;;;;;;;4957154;28;20296;-84
2023/10/28 01:48:01;;;;;;;1.00;0.50;;;;;;;;;;4955607;28;20187;-83
2023/10/28 01:50:30;;;;;;;0.32;0.32;;;;;;;;;;4953885;29;20216;-84
2023/10/28 01:52:58;;;;;;;1.45;0.52;;;;;;;;;;4954142;29;20209;-84
2023/10/28 01:55:29;;;;;;;0.47;0.43;;;;;;;;;;4955092;28;20203;-83
2023/10/28 01:58:04;;;;;;;4.00;1.58;;;;;;;;;;4956784;28;20590;-82
2023/10/28 02:00:33;;;;;;;0.90;0.60;;;;;;;;;;4958299;29;20206;-84
2023/10/28 02:03:02;;;;;;;2.70;0.43;;;;;;;;;;4957784;28;20246;-83
2023/10/28 02:05:30;;;;;;;0.32;0.32;;;;;;;;;;4957077;29;20695;-84
2023/10/28 02:07:59;;;;;;;0.35;0.35;;;;;;;;;;4956953;29;20214;-85
2023/10/28 02:10:30;;;;;;;0.35;0.35;;;;;;;;;;4956735;29;20210;-85
2023/10/28 02:12:59;;;;;;;0.40;0.40;;;;;;;;;;4956569;29;20195;-84
2023/10/28 02:15:29;;;;;;;0.98;0.98;;;;;;;;;;4957338;29;20264;-84
2023/10/28 02:17:57;;;;;;;1.13;0.40;;;;;;;;;;4956432;29;20238;-83
2023/10/28 02:20:28;;;;;;;1.35;0.55;;;;;;;;;;4956249;29;20854;-84
2023/10/28 02:22:56;;;;;;;0.47;0.47;;;;;;;;;;4956803;29;20207;-84
2023/10/28 02:25:25;;;;;;;0.35;0.35;;;;;;;;;;4956108;28;20234;-82
2023/10/28 02:27:56;;;;;;;2.00;0.75;;;;;;;;;;4956174;29;20659;-84
2023/10/28 02:30:24;;;;;;;0.70;0.70;;;;;;;;;;4961203;29;20202;-82
2023/10/28 02:32:54;;;;;;;1.15;0.40;;;;;;;;;;4963237;28;20202;-82
2023/10/28 02:35:22;;;;;;;1.50;0.60;;;;;;;;;;4955625;28;20210;-84
2023/10/28 02:37:54;;;;;;;4.15;0.60;;;;;;;;;;4956996;29;20206;-84
2023/10/28 02:40:25;;;;;;;1.95;0.43;;;;;;;;;;4955386;29;20206;-84
2023/10/28 02:42:54;;;;;;;1.25;0.50;;;;;;;;;;4956178;29;20289;-84
2023/10/28 02:45:23;;;;;;;4.05;0.50;;;;;;;;;;4955726;29;20637;-83
2023/10/28 02:47:53;;;;;;;1.35;0.60;;;;;;;;;;4955885;29;20213;-83
2023/10/28 02:50:22;;;;;;;1.10;0.32;;;;;;;;;;4955921;29;20298;-84
2023/10/28 02:52:53;;;;;;;0.63;0.63;;;;;;;;;;4955662;29;20213;-85
2023/10/28 02:55:23;;;;;;;0.90;0.60;;;;;;;;;;4954952;29;20292;-84
2023/10/28 02:57:53;;;;;;;1.25;0.77;;;;;;;;;;4955993;29;20226;-83
2023/10/28 03:00:23;;;;;;;0.40;0.40;;;;;;;;;;4955955;29;20291;-85
2023/10/28 03:02:52;;;;;;;1.30;0.75;;;;;;;;;;4955720;28;20351;-84
2023/10/28 03:05:24;;;;;;;0.63;0.63;;;;;;;;;;4955465;29;20313;-84
2023/10/28 03:07:53;;;;;;;3.60;0.70;;;;;;;;;;4954996;28;20194;-84
2023/10/28 03:10:22;;;;;;;2.38;0.80;;;;;;;;;;4955309;29;20262;-82
2023/10/28 03:12:53;;;;;;;1.52;0.60;;;;;;;;;;4955592;29;20198;-85
2023/10/28 03:15:24;;;;;;;1.02;0.98;;;;;;;;;;4956176;29;20229;-83
2023/10/28 03:17:53;;;;;;;1.10;1.10;;;;;;;;;;4955123;29;20200;-84
2023/10/28 03:20:23;;;;;;;2.40;1.52;;;;;;;;;;4955824;29;20202;-83
2023/10/28 03:22:53;;;;;;;1.30;1.20;;;;;;;;;;4955985;29;20272;-84
2023/10/28 03:25:24;;;;;;;2.15;1.60;;;;;;;;;;4955480;29;20326;-84
2023/10/28 03:27:53;;;;;;;5.28;1.95;;;;;;;;;;4956180;29;20274;-84
2023/10/28 03:30:23;;;;;;;6.72;2.05;;;;;;;;;;4955554;29;20201;-83
2023/10/28 03:32:52;;;;;;;2.10;1.40;;;;;;;;;;4955372;29;20201;-83
2023/10/28 03:35:22;;;;;;;2.53;1.55;;;;;;;;;;4956006;29;20258;-84
2023/10/28 03:37:50;;;;;;;2.25;1.23;;;;;;;;;;4955102;29;20594;-84
2023/10/28 03:40:20;;;;;;;2.70;1.48;;;;;;;;;;4954954;29;20208;-84
2023/10/28 03:42:48;;;;;;;1.20;1.20;;;;;;;;;;4955662;29;20678;-85
2023/10/28 03:45:16;;;;;;;1.45;1.35;;;;;;;;;;4955690;29;20269;-84
2023/10/28 03:47:47;;;;;;;5.95;1.35;;;;;;;;;;4954318;29;20203;-84
2023/10/28 03:50:18;;;;;;;2.65;1.30;;;;;;;;;;4954781;29;20761;-85
2023/10/28 03:52:48;;;;;;;3.15;1.30;;;;;;;;;;4954320;29;20305;-85
2023/10/28 03:55:23;;;;;;;2.55;1.20;;;;;;;;;;4953787;29;20196;-84
2023/10/28 03:57:53;;;;;;;2.20;1.98;;;;;;;;;;4954221;29;20571;-83
2023/10/28 04:00:24;;;;;;;2.58;2.00;;;;;;;;;;4954482;29;20288;-84
2023/10/28 04:02:54;;;;;;;1.80;1.70;;;;;;;;;;4954420;28;20642;-84
2023/10/28 04:05:22;;;;;;;1.70;1.60;;;;;;;;;;4955014;29;20214;-84
2023/10/28 04:07:51;;;;;;;4.25;1.70;;;;;;;;;;4954945;28;20208;-83
2023/10/28 04:10:20;;;;;;;2.25;2.10;;;;;;;;;;4954639;28;20199;-86
2023/10/28 04:12:47;;;;;;;1.85;1.00;;;;;;;;;;4954708;28;20205;-85
2023/10/28 04:15:18;;;;;;;1.30;1.30;;;;;;;;;;4954829;29;20568;-85
2023/10/28 04:17:46;;;;;;;2.13;1.88;;;;;;;;;;4954612;28;20282;-85
2023/10/28 04:20:17;;;;;;;2.08;1.20;;;;;;;;;;4955446;29;20202;-84
2023/10/28 04:22:46;;;;;;;8.13;1.60;;;;;;;;;;4955108;29;20209;-84
2023/10/28 04:25:15;;;;;;;6.30;1.30;;;;;;;;;;4954295;29;20506;-85
2023/10/28 04:27:45;;;;;;;1.40;1.30;;;;;;;;;;4954854;29;20293;-83
2023/10/28 04:30:12;;;;;;;1.33;1.05;;;;;;;;;;4957474;29;20217;-84
2023/10/28 04:32:43;;;;;;;1.15;1.05;;;;;;;;;;4964000;29;20385;-84
2023/10/28 04:35:13;;;;;;;1.02;1.02;;;;;;;;;;4971220;29;20197;-85
2023/10/28 04:37:44;;;;;;;1.35;1.30;;;;;;;;;;4973595;28;20214;-85
2023/10/28 04:40:13;;;;;;;5.60;1.23;;;;;;;;;;4974704;28;20204;-85
2023/10/28 04:42:44;;;;;;;2.88;1.85;;;;;;;;;;4955480;29;20216;-84
2023/10/28 04:45:14;;;;;;;1.95;1.60;;;;;;;;;;4954889;29;20248;-86
2023/10/28 04:47:45;;;;;;;3.70;1.30;;;;;;;;;;4953623;29;20593;-85
2023/10/28 04:50:16;;;;;;;2.35;1.35;;;;;;;;;;4954566;29;20213;-85
2023/10/28 04:52:45;;;;;;;3.53;1.80;;;;;;;;;;4957439;29;20232;-84
2023/10/28 04:55:16;;;;;;;1.73;1.63;;;;;;;;;;4953306;29;20704;-83
2023/10/28 04:57:45;;;;;;;1.25;1.25;;;;;;;;;;4953759;29;20265;-84
2023/10/28 05:00:18;;;;;;;3.90;1.77;;;;;;;;;;4955055;29;20199;-83
2023/10/28 05:02:48;;;;;;;1.50;1.40;;;;;;;;;;4954522;28;20221;-84
2023/10/28 05:05:22;;;;;;;2.53;1.87;;;;;;;;;;4955660;29;20234;-82
2023/10/28 05:07:51;;;;;;;6.37;1.87;;;;;;;;;;4954703;29;20767;-83
2023/10/28 05:10:22;;;;;;;3.53;1.47;;;;;;;;;;4954369;29;20200;-83
2023/10/28 05:12:50;;;;;;;3.17;1.90;;;;;;;;;;4955039;29;20672;-85
2023/10/28 05:15:19;;;;;;;2.37;2.20;;;;;;;;;;4957169;29;20209;-86
2023/10/28 05:17:48;;;;;;;3.77;1.50;;;;;;;;;;4954053;29;20200;-83
2023/10/28 05:20:18;;;;;;;3.75;1.55;;;;;;;;;;4955068;29;20241;-84
2023/10/28 05:23:03;;;;;;;6.95;2.15;;;;;;;;;;4957619;29;20243;-85
2023/10/28 05:25:36;;;;;;;3.13;1.40;;;;;;;;;;4957790;29;20236;-83
2023/10/28 05:28:04;;;;;;;2.10;1.90;;;;;;;;;;4957138;28;20225;-83
2023/10/28 05:30:32;;;;;;;2.78;1.60;;;;;;;;;;4957897;28;20718;-84
2023/10/28 05:33:02;;;;;;;3.20;1.43;;;;;;;;;;4960958;29;20216;-84
2023/10/28 05:35:33;;;;;;;2.20;2.03;;;;;;;;;;5028450;23;20235;-83
2023/10/28 05:38:05;;;;;;;2.22;2.10;;;;;;;;;;4948144;28;20236;-85
2023/10/28 05:40:35;;;;;;;2.67;1.80;;;;;;;;;;4945305;29;20198;-84
2023/10/28 05:43:03;;;;;;;3.90;2.00;;;;;;;;;;4939574;29;20206;-84
2023/10/28 05:45:31;;;;;;;2.80;1.80;;;;;;;;;;4939258;29;20241;-84
2023/10/28 05:48:02;;;;;;;2.65;2.03;;;;;;;;;;4939991;29;20221;-84
2023/10/28 05:50:30;;;;;;;2.22;1.50;;;;;;;;;;4943482;29;20262;-83
2023/10/28 05:52:59;;;;;;;2.80;1.90;;;;;;;;;;4944893;29;20681;-84
2023/10/28 05:55:39;;;;;;;2.88;1.90;;;;;;;;;;4949208;29;20211;-84
2023/10/28 05:58:10;;;;;;;2.03;1.85;;;;;;;;;;4952173;29;20655;-85
2023/10/28 06:00:40;;;;;;;4.68;1.60;;;;;;;;;;4939184;29;20230;-83
2023/10/28 06:03:10;;;;;;;1.85;1.73;;;;;;;;;;4939210;29;20225;-84
2023/10/28 06:05:42;;;;;;;2.97;2.03;;;;;;;;;;4938372;29;20233;-84
2023/10/28 06:08:11;;;;;;;2.30;2.05;;;;;;;;;;4938348;29;20268;-84
2023/10/28 06:10:41;;;;;;;5.45;1.90;;;;;;;;;;4938461;29;20289;-85
2023/10/28 06:13:11;;;;;;;4.03;2.10;;;;;;;;;;4942012;29;20206;-84
2023/10/28 06:15:38;;;;;;;4.60;2.40;;;;;;;;;;4942850;29;20203;-84
2023/10/28 06:18:09;;;;;;;2.00;1.90;;;;;;;;;;4937884;29;20200;-85
2023/10/28 06:20:36;;;;;;;3.97;2.08;;;;;;;;;;4937984;29;20271;-86
2023/10/28 06:23:06;;;;;;;5.32;2.70;;;;;;;;;;4941690;29;20255;-85
2023/10/28 06:25:34;;;;;;;2.05;1.88;;;;;;;;;;4938688;29;20231;-86
2023/10/28 06:28:10;;;;;;;1.48;1.48;;;;;;;;;;4941444;29;20255;-86
2023/10/28 06:30:57;;;;;;;5.80;1.85;;;;;;;;;;4939509;29;20207;-86
2023/10/28 06:33:29;;;;;;;1.45;1.13;;;;;;;;;;4940953;29;20650;-85
2023/10/28 06:36:00;;;;;;;1.42;1.33;;;;;;;;;;4939846;29;20250;-85
2023/10/28 06:38:31;;;;;;;1.65;1.55;;;;;;;;;;4940857;29;20215;-84
2023/10/28 06:40:59;;;;;;;7.43;1.90;;;;;;;;;;4940940;29;20208;-84
2023/10/28 06:43:34;;;;;;;1.73;1.63;;;;;;;;;;4940312;29;20306;-84
2023/10/28 06:46:06;;;;;;;1.83;1.58;;;;;;;;;;4938817;29;20231;-83
2023/10/28 06:48:39;;;;;;;5.28;1.63;;;;;;;;;;4938472;29;20211;-85
2023/10/28 06:51:27;;;;;;;3.63;1.75;;;;;;;;;;4938770;29;20234;-86
2023/10/28 06:53:56;;;;;;;12.55;1.77;;;;;;;;;;4939335;29;20549;-83
2023/10/28 06:56:28;;;;;;;2.65;1.90;;;;;;;;;;4939747;29;20564;-87
2023/10/28 06:59:02;;;;;;;10.05;2.03;;;;;;;;;;4940044;29;20210;-83
2023/10/28 07:01:36;;;;;;;1.77;1.58;;;;;;;;;;4939628;29;20603;-85
2023/10/28 07:04:16;;;;;;;2.15;1.63;;;;;;;;;;4942764;29;20200;-86
2023/10/28 07:06:45;;;;;;;5.35;2.45;;;;;;;;;;4940259;29;20266;-85
2023/10/28 07:09:17;;;;;;;2.50;1.35;;;;;;;;;;4940745;29;20258;-86
2023/10/28 07:11:48;;;;;;;1.90;1.40;;;;;;;;;;4944047;29;20187;-86
2023/10/28 07:14:18;;;;;;;2.88;1.45;;;;;;;;;;4939934;29;20219;-84
2023/10/28 07:16:48;;;;;;;1.50;1.40;;;;;;;;;;4942087;29;20286;-86
2023/10/28 07:19:33;;;;;;;3.40;1.58;;;;;;;;;;4940206;29;20251;-86
2023/10/28 07:25:01;;;;;;;1.75;1.48;;;;;;;;;;4933370;29;20673;-85
2023/10/28 07:33:18;;;;;;;2.22;1.50;;;;;;;;;;4953457;28;20230;-85
2023/10/28 07:36:02;;;;;;;6.95;1.63;;;;;;;;;;4959120;28;20246;-86
2023/10/28 07:38:35;;;;;;;4.95;1.85;;;;;;;;;;4940901;29;20207;-86
2023/10/28 07:41:13;;;;;;;4.18;1.48;;;;;;;;;;4937532;29;20208;-85
2023/10/28 07:44:03;;;;;;;5.72;1.58;;;;;;;;;;4936140;29;20219;-86
2023/10/28 07:46:38;;;;;;;3.95;1.83;;;;;;;;;;4935773;29;20235;-85
2023/10/28 07:49:10;;;;;;;2.15;2.05;;;;;;;;;;4936540;29;20195;-85
2023/10/28 07:51:40;;;;;;;3.60;1.77;;;;;;;;;;4936350;29;20274;-85
2023/10/28 07:54:14;;;;;;;3.42;2.22;;;;;;;;;;4937295;29;20581;-86
2023/10/28 07:56:45;;;;;;;2.55;2.00;;;;;;;;;;4938786;29;20286;-86
2023/10/28 07:59:19;;;;;;;3.40;1.52;;;;;;;;;;4937009;29;20200;-86
2023/10/28 08:01:58;;;;;;;2.88;1.25;;;;;;;;;;4936886;29;20299;-87
2023/10/28 08:07:36;;;;;;;2.22;1.10;;;;;;;;;;4932045;29;20282;-85
2023/10/28 08:10:36;;;;;;;1.48;1.38;;;;;;;;;;4936258;29;20215;-87
2023/10/28 08:13:03;;;;;;;5.50;1.63;;;;;;;;;;4863481;29;20198;-85
2023/10/28 08:15:33;;;;;;;1.60;1.50;;;;;;;;;;4935710;29;20200;-85
2023/10/28 08:18:03;;;;;;;5.60;1.80;;;;;;;;;;4938391;29;20697;-85
2023/10/28 08:20:55;;;;;;;2.60;1.50;;;;;;;;;;4936545;29;20191;-86
2023/10/28 08:23:28;;;;;;;1.88;1.70;;;;;;;;;;4936310;29;20195;-85
2023/10/28 08:25:57;;;;;;;4.43;1.77;;;;;;;;;;4935718;29;20219;-86
2023/10/28 08:28:28;;;;;;;5.43;1.73;;;;;;;;;;4937373;29;20220;-86
2023/10/28 08:30:59;;;;;;;1.52;1.20;;;;;;;;;;4936700;29;20282;-84
2023/10/28 08:33:31;;;;;;;2.80;1.70;;;;;;;;;;4936035;29;20243;-85
2023/10/28 08:36:03;;;;;;;1.20;1.20;;;;;;;;;;4935081;29;20255;-86
2023/10/28 08:38:33;;;;;;;3.85;1.80;;;;;;;;;;4935546;29;20203;-86
2023/10/28 08:41:06;;;;;;;1.33;1.23;;;;;;;;;;4935260;29;20207;-87
2023/10/28 08:43:34;;;;;;;2.00;1.63;;;;;;;;;;4935315;29;20211;-86
2023/10/28 08:46:04;;;;;;;1.38;1.27;;;;;;;;;;4935231;29;20324;-86
2023/10/28 08:48:33;;;;;;;3.88;1.67;;;;;;;;;;4935295;29;20230;-84
2023/10/28 08:51:05;;;;;;;2.25;1.85;;;;;;;;;;4934284;29;20207;-85
2023/10/28 08:53:34;;;;;;;8.98;1.63;;;;;;;;;;4934898;29;20211;-86
2023/10/28 08:56:04;;;;;;;1.73;1.63;;;;;;;;;;4935285;29;20252;-85
2023/10/28 08:58:34;;;;;;;4.70;1.50;;;;;;;;;;4934962;29;20271;-86
2023/10/28 09:01:02;;;;;;;3.67;1.60;;;;;;;;;;4935103;29;20267;-86
2023/10/28 09:03:33;;;;;;;2.97;1.73;;;;;;;;;;4935312;29;20220;-87
2023/10/28 09:06:03;;;;;;;11.98;1.75;;;;;;;;;;4934377;29;20239;-86
2023/10/28 09:08:32;;;;;;;1.80;1.50;;;;;;;;;;4935266;29;20203;-86
2023/10/28 09:11:01;;;;;;;1.67;1.58;;;;;;;;;;4935429;29;20196;-86
2023/10/28 09:13:36;;;;;;;2.67;1.20;;;;;;;;;;4934750;29;20206;-84
2023/10/28 09:16:04;;;;;;;5.63;1.27;;;;;;;;;;4935916;29;20195;-85
2023/10/28 09:18:38;;;;;;;2.05;0.82;;;;;;;;;;4940642;29;20663;-85
2023/10/28 09:21:13;;;;;;;8.40;1.20;;;;;;;;;;4945651;29;20199;-83
2023/10/28 09:23:43;;;;;;;1.63;1.33;;;;;;;;;;4938504;29;20237;-86
2023/10/28 09:26:12;;;;;;;0.57;0.57;;;;;;;;;;4935156;29;20231;-83
2023/10/28 09:28:47;;;;;;;2.38;1.33;;;;;;;;;;4934432;29;20726;-87
2023/10/28 09:31:23;;;;;;;4.40;2.05;;;;;;;;;;4934775;29;20226;-85
2023/10/28 09:33:52;;;;;;;1.80;1.40;;;;;;;;;;4940774;29;20235;-85
2023/10/28 09:36:34;;;;;;;1.45;0.65;;;;;;;;;;4941236;29;20322;-86
2023/10/28 09:39:22;;;;;;;1.65;0.70;;;;;;;;;;4940801;29;20602;-85
2023/10/28 09:41:54;;;;;;;0.95;0.77;;;;;;;;;;4939717;29;20196;-86
2023/10/28 09:44:26;;;;;;;2.70;0.68;;;;;;;;;;4940989;29;20269;-86
2023/10/28 09:47:01;;;;;;;1.10;0.82;;;;;;;;;;4939523;29;20325;-86
2023/10/28 09:49:29;;;;;;;6.32;2.70;;;;;;;;;;4936691;29;20199;-86
2023/10/28 09:51:58;;;;;;;3.53;1.83;;;;;;;;;;4936447;29;20215;-86
2023/10/28 09:54:37;;;;;;;2.05;0.80;;;;;;;;;;4941625;29;20688;-86
2023/10/28 09:57:09;;;;;;;1.48;0.60;;;;;;;;;;4940312;29;20203;-86
2023/10/28 09:59:58;;;;;;;1.38;0.70;;;;;;;;;;4939204;29;20539;-88
2023/10/28 10:02:32;;;;;;;4.47;0.95;;;;;;;;;;4935355;29;20228;-86
2023/10/28 10:05:02;;;;;;;1.40;0.65;;;;;;;;;;4934820;29;20192;-87
2023/10/28 10:07:32;;;;;;;2.63;0.68;;;;;;;;;;4935222;29;20235;-85
2023/10/28 10:10:13;;;;;;;1.40;0.47;;;;;;;;;;4934308;29;20211;-86
2023/10/28 10:12:42;;;;;;;1.00;0.80;;;;;;;;;;4934642;29;20215;-86
2023/10/28 10:15:29;;;;;;;3.53;0.52;;;;;;;;;;4938239;29;20681;-85
2023/10/28 10:18:11;;;;;;;5.25;0.93;;;;;;;;;;4941902;29;20203;-88
2023/10/28 10:20:43;;;;;;;0.60;0.60;;;;;;;;;;4937892;29;20227;-86
2023/10/28 10:23:13;;;;;;;2.42;0.90;;;;;;;;;;4938717;29;20196;-84
2023/10/28 10:25:44;;;;;;;4.38;0.45;;;;;;;;;;4938462;29;20204;-86
2023/10/28 10:28:15;;;;;;;0.85;0.65;;;;;;;;;;4957211;29;20271;-87
2023/10/28 10:30:47;;;;;;;2.50;0.60;;;;;;;;;;4960411;28;20270;-86
2023/10/28 10:33:27;;;;;;;2.58;0.55;;;;;;;;;;4961361;28;20271;-86
2023/10/28 10:36:00;;;;;;;1.20;0.63;;;;;;;;;;4948045;28;20235;-86
2023/10/28 10:38:32;;;;;;;1.45;0.70;;;;;;;;;;4938813;29;20208;-86
2023/10/28 10:41:01;;;;;;;1.13;0.50;;;;;;;;;;4937930;29;20212;-86
2023/10/28 10:43:40;;;;;;;0.90;0.55;;;;;;;;;;4937620;29;20231;-86
2023/10/28 10:46:13;;;;;;;2.92;0.50;;;;;;;;;;4936707;29;20209;-86
2023/10/28 10:48:41;;;;;;;1.20;0.70;;;;;;;;;;4937917;29;20575;-86
2023/10/28 10:51:09;;;;;;;2.58;0.70;;;;;;;;;;4938148;29;20676;-84
2023/10/28 10:53:48;;;;;;;0.98;0.60;;;;;;;;;;4937950;29;20286;-87
2023/10/28 10:56:33;;;;;;;0.63;0.60;;;;;;;;;;4938519;29;20692;-87
2023/10/28 10:59:10;;;;;;;2.88;0.73;;;;;;;;;;4937270;29;20241;-85
2023/10/28 11:01:40;;;;;;;1.45;0.77;;;;;;;;;;4936904;29;20574;-85
2023/10/28 11:04:15;;;;;;;1.05;0.50;;;;;;;;;;4936663;29;20536;-86
2023/10/28 11:06:47;;;;;;;1.58;0.63;;;;;;;;;;4936877;29;20258;-87
2023/10/28 11:09:21;;;;;;;0.82;0.82;;;;;;;;;;4936519;29;20223;-85
2023/10/28 11:11:55;;;;;;;0.40;0.35;;;;;;;;;;4937007;29;20660;-87
2023/10/28 11:14:25;;;;;;;0.75;0.60;;;;;;;;;;4937536;29;20215;-85
2023/10/28 11:16:59;;;;;;;1.52;0.73;;;;;;;;;;4936675;29;20282;-87
2023/10/28 11:19:29;;;;;;;1.67;0.47;;;;;;;;;;4936296;29;20222;-86
2023/10/28 11:21:59;;;;;;;0.50;0.50;;;;;;;;;;4937164;29;20206;-86
2023/10/28 11:24:29;;;;;;;0.50;0.50;;;;;;;;;;4937968;29;20188;-86
2023/10/28 11:27:00;;;;;;;0.70;0.68;;;;;;;;;;4936299;29;20223;-86
2023/10/28 11:29:37;;;;;;;0.77;0.60;;;;;;;;;;4935628;29;20206;-86
2023/10/28 11:32:13;;;;;;;0.85;0.77;;;;;;;;;;4937030;29;20223;-86
2023/10/28 11:34:47;;;;;;;1.92;0.73;;;;;;;;;;4936560;29;20321;-86
2023/10/28 11:37:19;;;;;;;2.67;0.70;;;;;;;;;;4936717;29;20223;-84
2023/10/28 11:39:56;;;;;;;2.63;0.73;;;;;;;;;;4936932;29;20661;-87
2023/10/28 11:42:37;;;;;;;1.30;0.65;;;;;;;;;;4934994;29;20210;-86
2023/10/28 11:45:10;;;;;;;3.35;0.60;;;;;;;;;;4937286;29;20227;-85
2023/10/28 11:47:41;;;;;;;2.17;0.70;;;;;;;;;;4936682;29;20723;-86
2023/10/28 11:50:11;;;;;;;2.20;0.93;;;;;;;;;;4949798;29;20203;-84
2023/10/28 11:52:43;;;;;;;1.48;0.47;;;;;;;;;;4954098;29;20214;-86
2023/10/28 11:55:12;;;;;;;0.50;0.50;;;;;;;;;;4937553;29;20660;-87
2023/10/28 11:57:44;;;;;;;2.95;0.60;;;;;;;;;;4937129;29;20210;-87
2023/10/28 12:00:14;;;;;;;0.60;0.60;;;;;;;;;;4937296;29;20224;-87
2023/10/28 12:02:43;;;;;;;0.60;0.60;;;;;;;;;;4936377;29;20227;-86
2023/10/28 12:05:13;;;;;;;0.90;0.90;;;;;;;;;;4936251;29;20192;-85
2023/10/28 12:07:44;;;;;;;0.95;0.90;;;;;;;;;;4936687;29;20239;-86
2023/10/28 12:10:18;;;;;;;4.95;0.80;;;;;;;;;;4936616;29;20259;-87
2023/10/28 12:12:53;;;;;;;2.15;0.90;;;;;;;;;;4937972;29;20723;-86
2023/10/28 12:15:25;;;;;;;0.70;0.70;;;;;;;;;;4941952;29;20199;-85
2023/10/28 12:18:00;;;;;;;1.55;0.77;;;;;;;;;;4938074;29;20204;-86
2023/10/28 12:20:31;;;;;;;6.55;0.95;;;;;;;;;;4936238;29;20209;-85
2023/10/28 12:22:59;;;;;;;1.85;1.17;;;;;;;;;;4936231;29;20192;-86
2023/10/28 12:25:31;;;;;;;2.30;1.45;;;;;;;;;;4935828;29;20208;-85
2023/10/28 12:28:02;;;;;;;1.75;1.30;;;;;;;;;;4936664;29;20239;-87
2023/10/28 12:30:34;;;;;;;3.42;2.45;;;;;;;;;;4937537;29;20196;-87
2023/10/28 12:33:04;;;;;;;1.15;1.02;;;;;;;;;;4937907;29;20211;-86
2023/10/28 12:35:35;;;;;;;1.05;0.60;;;;;;;;;;4943027;29;20231;-85
2023/10/28 12:38:05;;;;;;;1.55;1.55;;;;;;;;;;4944885;29;20247;-85
2023/10/28 12:40:34;;;;;;;0.55;0.55;;;;;;;;;;4945833;29;20266;-86
2023/10/28 12:43:05;;;;;;;2.15;0.80;;;;;;;;;;4946326;29;20475;-85
2023/10/28 12:45:37;;;;;;;4.63;0.80;;;;;;;;;;4946907;29;20275;-85
2023/10/28 12:48:11;;;;;;;2.75;0.70;;;;;;;;;;4947062;29;20741;-86
2023/10/28 12:50:39;;;;;;;3.17;1.00;;;;;;;;;;4946661;29;20210;-85
2023/10/28 12:53:10;;;;;;;0.65;0.55;;;;;;;;;;4946464;29;20231;-85
2023/10/28 12:55:41;;;;;;;5.05;1.42;;;;;;;;;;4948042;29;20187;-86
2023/10/28 12:58:14;;;;;;;0.75;0.75;;;;;;;;;;4953545;29;20200;-85
2023/10/28 13:00:54;;;;;;;0.90;0.80;;;;;;;;;;4953569;29;20219;-87
2023/10/28 13:03:25;;;;;;;1.20;0.55;;;;;;;;;;4951694;29;20246;-85
2023/10/28 13:05:55;;;;;;;0.73;0.70;;;;;;;;;;4953094;29;20249;-88
2023/10/28 13:08:27;;;;;;;0.77;0.77;;;;;;;;;;4953281;29;20243;-84
2023/10/28 13:10:57;;;;;;;2.38;0.60;;;;;;;;;;4954245;29;20235;-85
2023/10/28 13:13:28;;;;;;;3.05;1.17;;;;;;;;;;4954802;29;20184;-86
2023/10/28 13:15:59;;;;;;;2.78;0.90;;;;;;;;;;4953392;29;20203;-84
2023/10/28 13:18:32;;;;;;;1.10;0.57;;;;;;;;;;4938752;29;20207;-87
2023/10/28 13:21:06;;;;;;;1.20;0.60;;;;;;;;;;4935616;29;20651;-86
2023/10/28 13:23:36;;;;;;;1.02;0.80;;;;;;;;;;4936044;29;20262;-87
2023/10/28 13:26:05;;;;;;;4.05;0.77;;;;;;;;;;4936716;29;20207;-85
2023/10/28 13:28:36;;;;;;;1.80;0.50;;;;;;;;;;4957654;28;20455;-85
2023/10/28 13:31:10;;;;;;;1.63;1.00;;;;;;;;;;4958491;28;20187;-85
2023/10/28 13:33:40;;;;;;;4.18;0.85;;;;;;;;;;4958162;28;20194;-85
2023/10/28 13:36:08;;;;;;;1.58;0.98;;;;;;;;;;4946435;28;20235;-85
2023/10/28 13:38:39;;;;;;;0.82;0.80;;;;;;;;;;4944453;29;20257;-85
2023/10/28 13:41:10;;;;;;;1.45;0.73;;;;;;;;;;4940269;29;20200;-86
2023/10/28 13:43:41;;;;;;;2.97;0.90;;;;;;;;;;4935003;29;20271;-86
2023/10/28 13:46:11;;;;;;;2.50;0.85;;;;;;;;;;4935413;29;20640;-87
2023/10/28 13:48:41;;;;;;;1.13;1.05;;;;;;;;;;4935459;29;20239;-85
2023/10/28 13:51:14;;;;;;;1.05;0.77;;;;;;;;;;4935936;29;20203;-86
2023/10/28 13:53:46;;;;;;;2.10;0.85;;;;;;;;;;4940178;29;20293;-85
2023/10/28 13:56:14;;;;;;;1.38;0.80;;;;;;;;;;4939913;29;20206;-85
2023/10/28 13:58:44;;;;;;;1.00;0.88;;;;;;;;;;4938434;29;20200;-87
2023/10/28 14:01:14;;;;;;;1.30;0.75;;;;;;;;;;4938343;29;20239;-86
2023/10/28 14:03:43;;;;;;;1.00;0.63;;;;;;;;;;4938650;29;20269;-86
2023/10/28 14:06:14;;;;;;;2.30;0.70;;;;;;;;;;4938227;29;20215;-86
2023/10/28 14:08:44;;;;;;;1.00;1.00;;;;;;;;;;4938365;29;20729;-86
2023/10/28 14:11:13;;;;;;;0.63;0.63;;;;;;;;;;4938766;29;20219;-87
2023/10/28 14:13:45;;;;;;;2.10;0.65;;;;;;;;;;4938726;29;20654;-85
2023/10/28 14:16:21;;;;;;;1.08;0.88;;;;;;;;;;4938264;29;20203;-87
2023/10/28 14:18:52;;;;;;;0.68;0.50;;;;;;;;;;4938583;29;20214;-87
2023/10/28 14:21:22;;;;;;;5.22;1.00;;;;;;;;;;4938672;29;20212;-87
2023/10/28 14:23:52;;;;;;;2.30;0.93;;;;;;;;;;4940093;29;20202;-86
2023/10/28 14:26:24;;;;;;;2.72;1.10;;;;;;;;;;4945219;29;20218;-87
2023/10/28 14:28:53;;;;;;;0.88;0.85;;;;;;;;;;4944047;29;20246;-85
2023/10/28 14:31:23;;;;;;;1.42;0.85;;;;;;;;;;4938240;29;20247;-85
2023/10/28 14:33:53;;;;;;;0.90;0.90;;;;;;;;;;4939148;29;20204;-85
2023/10/28 14:36:22;;;;;;;3.05;0.70;;;;;;;;;;4938377;29;20239;-86
2023/10/28 14:38:52;;;;;;;2.65;1.27;;;;;;;;;;4937990;29;20465;-85
2023/10/28 14:41:21;;;;;;;3.13;1.50;;;;;;;;;;4939537;29;20287;-85
2023/10/28 14:43:49;;;;;;;1.67;1.40;;;;;;;;;;4940620;29;20657;-87
2023/10/28 14:46:19;;;;;;;2.55;1.45;;;;;;;;;;4939919;29;20278;-87
2023/10/28 14:49:02;;;;;;;4.40;1.52;;;;;;;;;;4938584;29;20239;-85
2023/10/28 14:51:39;;;;;;;1.30;1.20;;;;;;;;;;4939972;29;20208;-85
2023/10/28 14:54:10;;;;;;;1.38;0.93;;;;;;;;;;4937036;29;20208;-86
2023/10/28 14:56:39;;;;;;;1.90;0.93;;;;;;;;;;4937759;29;20195;-87
2023/10/28 14:59:08;;;;;;;1.17;0.93;;;;;;;;;;4937635;29;20196;-86
2023/10/28 15:01:39;;;;;;;1.02;0.85;;;;;;;;;;4937691;29;20650;-87
2023/10/28 15:04:08;;;;;;;2.35;0.90;;;;;;;;;;4936750;29;20203;-86
2023/10/28 15:06:38;;;;;;;1.67;1.10;;;;;;;;;;4937866;29;20223;-85
2023/10/28 15:09:06;;;;;;;1.23;1.23;;;;;;;;;;4936856;29;20513;-86
2023/10/28 15:11:38;;;;;;;4.53;1.40;;;;;;;;;;4936696;29;20669;-87
2023/10/28 15:14:07;;;;;;;6.18;1.23;;;;;;;;;;4937224;29;20217;-87
2023/10/28 15:16:37;;;;;;;2.35;1.23;;;;;;;;;;4936377;29;20293;-86
2023/10/28 15:19:06;;;;;;;1.23;1.05;;;;;;;;;;4937638;29;20207;-85